createdAt,value
2023-05-11T00:00:11.944Z,7.30
2023-05-11T00:02:39.182Z,6.80
2023-05-11T00:05:07.345Z,6.40
2023-05-11T00:07:34.280Z,7.20
2023-05-11T00:10:01.274Z,7.20
2023-05-11T00:12:28.276Z,7.70
2023-05-11T00:14:55.131Z,7.20
2023-05-11T00:17:22.762Z,6.90
2023-05-11T00:19:50.138Z,8.00
2023-05-11T00:22:17.284Z,7.40
2023-05-11T00:24:44.165Z,7.80
2023-05-11T00:27:11.374Z,8.00
2023-05-11T00:29:38.318Z,7.90
2023-05-11T00:32:05.271Z,8.30
2023-05-11T00:34:32.215Z,7.40
2023-05-11T00:36:59.096Z,7.90
2023-05-11T00:39:26.301Z,8.00
2023-05-11T00:41:54.166Z,7.70
2023-05-11T00:44:22.550Z,7.20
2023-05-11T00:46:49.560Z,7.30
2023-05-11T00:49:17.597Z,7.10
2023-05-11T00:51:44.756Z,7.30
2023-05-11T00:54:15.650Z,6.60
2023-05-11T00:56:42.817Z,6.80
2023-05-11T00:59:09.846Z,6.80
2023-05-11T01:01:38.947Z,7.20
2023-05-11T01:04:06.114Z,6.60
2023-05-11T01:07:05.792Z,7.20
2023-05-11T01:09:47.492Z,7.70
2023-05-11T01:12:30.517Z,6.50
2023-05-11T01:15:25.937Z,7.00
2023-05-11T01:18:10.646Z,6.60
2023-05-11T01:20:38.356Z,7.80
2023-05-11T01:23:08.268Z,7.30
2023-05-11T01:25:50.365Z,6.20
2023-05-11T01:28:23.583Z,7.10
2023-05-11T01:30:53.551Z,7.40
2023-05-11T01:33:24.816Z,7.20
2023-05-11T01:35:53.668Z,7.10
2023-05-11T01:38:22.052Z,6.80
2023-05-11T01:40:52.870Z,5.60
2023-05-11T01:43:21.920Z,6.80
2023-05-11T01:45:51.315Z,5.80
2023-05-11T01:48:21.738Z,7.20
2023-05-11T01:50:48.688Z,6.40
2023-05-11T01:53:16.238Z,6.50
2023-05-11T01:55:43.290Z,6.30
2023-05-11T01:58:11.049Z,5.30
2023-05-11T02:00:37.991Z,7.10
2023-05-11T02:03:06.015Z,6.30
2023-05-11T02:05:33.827Z,6.20
2023-05-11T02:08:01.911Z,6.00
2023-05-11T02:10:28.770Z,6.10
2023-05-11T02:12:55.992Z,5.60
2023-05-11T02:15:24.169Z,6.10
2023-05-11T02:17:51.548Z,5.50
2023-05-11T02:20:19.394Z,6.00
2023-05-11T02:22:46.537Z,5.30
2023-05-11T02:25:13.894Z,5.30
2023-05-11T02:27:40.936Z,5.40
2023-05-11T02:30:09.012Z,4.80
2023-05-11T02:32:38.440Z,5.90
2023-05-11T02:35:17.644Z,5.90
2023-05-11T02:37:45.667Z,5.50
2023-05-11T02:40:21.235Z,5.30
2023-05-11T02:42:49.950Z,6.10
2023-05-11T02:45:17.208Z,5.50
2023-05-11T02:47:47.661Z,6.30
2023-05-11T02:50:19.285Z,5.80
2023-05-11T02:52:47.956Z,5.50
2023-05-11T02:55:16.040Z,5.60
2023-05-11T02:57:44.184Z,5.80
2023-05-11T03:00:11.893Z,5.60
2023-05-11T03:02:39.101Z,5.40
2023-05-11T03:05:07.007Z,4.90
2023-05-11T03:07:34.880Z,6.30
2023-05-11T03:10:03.124Z,5.20
2023-05-11T03:12:34.714Z,4.40
2023-05-11T03:15:02.530Z,4.70
2023-05-11T03:17:30.125Z,5.20
2023-05-11T03:19:57.151Z,4.60
2023-05-11T03:22:24.816Z,4.90
2023-05-11T03:24:51.966Z,4.40
2023-05-11T03:27:19.649Z,5.30
2023-05-11T03:29:46.779Z,5.00
2023-05-11T03:32:14.068Z,4.40
2023-05-11T03:34:41.383Z,4.70
2023-05-11T03:37:11.295Z,4.30
2023-05-11T03:39:38.248Z,4.60
2023-05-11T03:42:05.592Z,4.30
2023-05-11T03:44:33.309Z,4.60
2023-05-11T03:47:01.447Z,4.30
2023-05-11T03:49:28.780Z,4.20
2023-05-11T03:51:56.625Z,4.30
2023-05-11T03:54:24.529Z,4.50
2023-05-11T03:56:52.177Z,4.70
2023-05-11T03:59:20.351Z,4.40
2023-05-11T04:02:42.805Z,4.00
2023-05-11T04:05:12.601Z,4.40
2023-05-11T04:07:41.285Z,4.00
2023-05-11T04:10:08.866Z,4.40
2023-05-11T04:12:35.916Z,4.40
2023-05-11T04:15:03.042Z,4.00
2023-05-11T04:17:30.300Z,4.10
2023-05-11T04:19:57.347Z,4.20
2023-05-11T04:22:24.390Z,4.50
2023-05-11T04:24:51.547Z,4.40
2023-05-11T04:27:18.588Z,3.40
2023-05-11T04:29:45.955Z,4.00
2023-05-11T04:32:12.886Z,4.10
2023-05-11T04:34:40.233Z,4.10
2023-05-11T04:37:08.812Z,3.90
2023-05-11T04:39:37.720Z,4.10
2023-05-11T04:42:05.578Z,3.60
2023-05-11T04:44:32.803Z,3.40
2023-05-11T04:46:59.862Z,3.90
2023-05-11T04:49:27.538Z,3.90
2023-05-11T04:51:54.581Z,3.80
2023-05-11T04:54:21.636Z,3.70
2023-05-11T04:56:49.391Z,3.70
2023-05-11T04:59:16.541Z,3.80
2023-05-11T05:01:43.409Z,3.20
2023-05-11T05:04:10.978Z,3.50
2023-05-11T05:06:38.721Z,3.20
2023-05-11T05:09:06.064Z,3.30
2023-05-11T05:11:33.631Z,3.30
2023-05-11T05:14:01.387Z,2.90
2023-05-11T05:16:30.141Z,3.50
2023-05-11T05:18:58.913Z,3.10
2023-05-11T05:21:26.429Z,3.00
2023-05-11T05:23:53.554Z,2.70
2023-05-11T05:26:21.861Z,3.00
2023-05-11T05:28:49.833Z,2.80
2023-05-11T05:31:17.532Z,2.70
2023-05-11T05:33:44.624Z,3.00
2023-05-11T05:36:11.709Z,2.80
2023-05-11T05:38:38.819Z,3.00
2023-05-11T05:41:06.789Z,2.50
2023-05-11T05:43:37.318Z,2.60
2023-05-11T05:46:04.427Z,1.80
2023-05-11T05:48:31.771Z,2.80
2023-05-11T05:51:00.344Z,2.50
2023-05-11T05:53:27.974Z,2.00
2023-05-11T05:55:55.208Z,3.70
2023-05-11T05:58:22.152Z,2.40
2023-05-11T06:00:49.356Z,2.20
2023-05-11T06:03:16.431Z,2.10
2023-05-11T06:05:43.510Z,1.80
2023-05-11T06:08:11.771Z,2.00
2023-05-11T06:10:39.458Z,1.90
2023-05-11T06:13:08.334Z,2.50
2023-05-11T06:15:35.780Z,2.00
2023-05-11T06:18:08.801Z,2.10
2023-05-11T06:20:36.229Z,1.60
2023-05-11T06:23:05.023Z,1.60
2023-05-11T06:25:35.898Z,1.30
2023-05-11T06:28:03.313Z,1.60
2023-05-11T06:30:31.578Z,1.40
2023-05-11T06:32:59.103Z,1.40
2023-05-11T06:35:26.188Z,1.40
2023-05-11T06:37:53.138Z,1.30
2023-05-11T06:40:20.422Z,1.40
2023-05-11T06:42:47.639Z,1.90
2023-05-11T06:45:15.017Z,1.30
2023-05-11T06:47:42.633Z,1.20
2023-05-11T06:50:10.203Z,1.30
2023-05-11T06:52:38.082Z,1.20
2023-05-11T06:55:05.932Z,1.30
2023-05-11T06:57:33.001Z,1.50
2023-05-11T07:00:00.184Z,1.00
2023-05-11T07:02:27.432Z,1.20
2023-05-11T07:04:54.737Z,1.40
2023-05-11T07:07:22.934Z,1.60
2023-05-11T07:09:50.181Z,1.00
2023-05-11T07:12:17.214Z,1.10
2023-05-11T07:14:44.156Z,1.10
2023-05-11T07:17:11.234Z,1.10
2023-05-11T07:19:38.454Z,1.40
2023-05-11T07:22:06.221Z,1.00
2023-05-11T07:24:33.674Z,1.00
2023-05-11T07:27:02.152Z,1.20
2023-05-11T07:29:29.714Z,1.30
2023-05-11T07:31:56.635Z,1.50
2023-05-11T07:34:24.738Z,1.40
2023-05-11T07:36:51.681Z,1.50
2023-05-11T07:39:19.641Z,1.20
2023-05-11T07:41:47.507Z,1.30
2023-05-11T07:44:15.168Z,1.20
2023-05-11T07:46:42.465Z,1.60
2023-05-11T07:49:17.048Z,1.00
2023-05-11T07:51:47.798Z,1.10
2023-05-11T07:54:14.938Z,1.40
2023-05-11T07:56:42.280Z,1.40
2023-05-11T07:59:09.266Z,1.30
2023-05-11T08:01:36.891Z,1.50
2023-05-11T08:04:03.835Z,1.10
2023-05-11T08:06:31.497Z,1.50
2023-05-11T08:08:58.541Z,1.50
2023-05-11T08:11:26.417Z,1.60
2023-05-11T08:13:53.365Z,2.00
2023-05-11T08:16:20.364Z,2.30
2023-05-11T08:18:48.137Z,1.60
2023-05-11T08:21:15.208Z,3.80
2023-05-11T08:23:43.481Z,1.90
2023-05-11T08:26:11.987Z,1.60
2023-05-11T08:28:39.018Z,1.70
2023-05-11T08:31:06.513Z,1.60
2023-05-11T08:33:38.329Z,1.70
2023-05-11T08:36:07.076Z,1.90
2023-05-11T08:38:35.511Z,1.70
2023-05-11T08:41:03.056Z,1.60
2023-05-11T08:43:29.993Z,1.40
2023-05-11T08:45:58.311Z,1.60
2023-05-11T08:48:25.328Z,1.90
2023-05-11T08:50:52.263Z,1.90
2023-05-11T08:53:19.207Z,1.80
2023-05-11T08:55:46.254Z,2.40
2023-05-11T08:58:15.357Z,2.40
2023-05-11T09:00:42.493Z,4.10
2023-05-11T09:03:09.506Z,3.00
2023-05-11T09:05:36.552Z,2.60
2023-05-11T09:08:04.451Z,3.00
2023-05-11T09:10:31.281Z,2.50
2023-05-11T09:12:58.262Z,2.90
2023-05-11T09:15:25.190Z,3.10
2023-05-11T09:17:52.166Z,2.70
2023-05-11T09:20:30.149Z,3.20
2023-05-11T09:22:57.283Z,2.60
2023-05-11T09:25:24.944Z,3.10
2023-05-11T09:27:52.093Z,2.70
2023-05-11T09:30:23.206Z,2.20
2023-05-11T09:32:51.722Z,3.00
2023-05-11T09:35:26.762Z,2.60
2023-05-11T09:38:06.698Z,3.30
2023-05-11T09:40:55.254Z,3.20
2023-05-11T09:43:30.260Z,3.80
2023-05-11T09:45:58.905Z,3.50
2023-05-11T09:48:30.325Z,2.60
2023-05-11T09:51:07.924Z,2.30
2023-05-11T09:53:46.031Z,2.20
2023-05-11T09:56:14.145Z,2.50
2023-05-11T09:58:52.166Z,2.10
2023-05-11T10:01:28.792Z,2.10
2023-05-11T10:04:00.390Z,3.10
2023-05-11T10:07:06.894Z,3.20
2023-05-11T10:09:34.358Z,2.10
2023-05-11T10:12:01.914Z,2.30
2023-05-11T10:14:29.583Z,2.10
2023-05-11T10:16:57.753Z,2.10
2023-05-11T10:19:24.993Z,2.20
2023-05-11T10:21:52.338Z,2.10
2023-05-11T10:24:20.515Z,2.10
2023-05-11T10:26:47.779Z,1.90
2023-05-11T10:29:14.822Z,1.80
2023-05-11T10:31:42.149Z,1.70
2023-05-11T10:34:09.834Z,1.80
2023-05-11T10:36:36.881Z,1.70
2023-05-11T10:39:04.041Z,1.90
2023-05-11T10:41:42.654Z,2.40
2023-05-11T10:44:40.705Z,1.30
2023-05-11T10:47:12.169Z,1.10
2023-05-11T10:49:48.222Z,1.70
2023-05-11T10:52:15.276Z,1.40
2023-05-11T10:54:49.293Z,1.50
2023-05-11T10:57:22.373Z,0.90
2023-05-11T11:00:10.948Z,1.10
2023-05-11T11:02:38.220Z,1.50
2023-05-11T11:05:10.851Z,1.90
2023-05-11T11:08:04.498Z,1.60
2023-05-11T11:10:51.789Z,1.60
2023-05-11T11:13:20.360Z,1.40
2023-05-11T11:15:54.455Z,1.40
2023-05-11T11:18:33.570Z,1.40
2023-05-11T11:21:01.438Z,1.60
2023-05-11T11:23:44.220Z,1.60
2023-05-11T11:26:15.826Z,1.40
2023-05-11T11:28:57.413Z,1.40
2023-05-11T11:31:26.311Z,1.80
2023-05-11T11:33:54.301Z,1.80
2023-05-11T11:37:01.246Z,1.60
2023-05-11T11:42:06.826Z,1.80
2023-05-11T11:44:40.713Z,1.80
2023-05-11T11:47:11.075Z,1.50
2023-05-11T11:49:38.796Z,2.00
2023-05-11T11:52:08.709Z,1.70
2023-05-11T11:54:40.590Z,1.50
2023-05-11T11:57:29.729Z,1.40
2023-05-11T11:59:56.773Z,1.90
2023-05-11T12:02:23.740Z,1.20
2023-05-11T12:04:52.532Z,1.50
2023-05-11T12:07:20.275Z,2.20
2023-05-11T12:09:47.763Z,1.30
2023-05-11T12:12:17.331Z,1.40
2023-05-11T12:14:49.375Z,1.20
2023-05-11T12:17:38.193Z,1.30
2023-05-11T12:20:13.425Z,1.20
2023-05-11T12:22:40.548Z,1.50
2023-05-11T12:25:09.081Z,1.50
2023-05-11T12:27:36.692Z,1.60
2023-05-11T12:30:03.934Z,1.50
2023-05-11T12:32:31.572Z,1.90
2023-05-11T12:35:00.564Z,1.70
2023-05-11T12:37:28.866Z,2.00
2023-05-11T12:39:56.425Z,2.70
2023-05-11T12:42:23.775Z,2.70
2023-05-11T12:44:51.402Z,5.60
2023-05-11T12:47:18.385Z,5.80
2023-05-11T12:49:45.227Z,10.50
2023-05-11T12:52:13.635Z,4.50
2023-05-11T12:54:51.364Z,2.10
2023-05-11T12:57:29.229Z,2.00
2023-05-11T13:00:13.144Z,2.00
2023-05-11T13:02:50.480Z,1.60
2023-05-11T13:05:19.748Z,1.20
2023-05-11T13:07:48.752Z,1.30
2023-05-11T13:10:15.971Z,1.40
2023-05-11T13:12:50.596Z,2.40
2023-05-11T13:15:17.926Z,1.40
2023-05-11T13:17:45.457Z,1.50
2023-05-11T13:20:27.389Z,1.80
2023-05-11T13:23:04.619Z,1.40
2023-05-11T13:25:32.079Z,1.50
2023-05-11T13:27:59.404Z,1.30
2023-05-11T13:30:26.355Z,2.70
2023-05-11T13:32:53.546Z,1.40
2023-05-11T14:12:33.787Z,1.60
2023-05-11T14:15:01.047Z,1.30
2023-05-11T14:17:28.052Z,1.70
2023-05-11T14:19:54.955Z,1.60
2023-05-11T14:22:21.874Z,1.80
2023-05-11T14:24:50.259Z,1.40
2023-05-11T14:27:17.608Z,1.70
2023-05-11T14:29:45.779Z,1.50
2023-05-11T14:32:15.798Z,1.60
2023-05-11T14:34:43.085Z,2.00
2023-05-11T14:37:10.108Z,2.40
2023-05-11T14:39:37.040Z,2.60
2023-05-11T14:42:04.594Z,1.90
2023-05-11T14:44:32.271Z,1.90
2023-05-11T14:46:59.199Z,1.90
2023-05-11T14:49:26.364Z,1.70
2023-05-11T14:51:53.397Z,1.30
2023-05-11T14:54:21.060Z,1.60
2023-05-11T14:56:54.014Z,1.40
2023-05-11T14:59:24.803Z,1.40
2023-05-11T15:01:51.855Z,1.60
2023-05-11T15:04:19.285Z,1.70
2023-05-11T15:06:46.812Z,2.00
2023-05-11T15:09:13.895Z,1.70
2023-05-11T15:11:41.038Z,1.60
2023-05-11T15:14:08.285Z,1.70
2023-05-11T15:16:35.493Z,1.50
2023-05-11T15:19:02.544Z,1.60
2023-05-11T15:21:29.474Z,1.80
2023-05-11T15:23:56.471Z,2.00
2023-05-11T15:26:23.522Z,1.80
2023-05-11T15:28:50.569Z,1.60
2023-05-11T15:31:17.577Z,1.20
2023-05-11T15:33:45.144Z,1.80
2023-05-11T15:36:13.189Z,1.60
2023-05-11T15:38:41.128Z,1.80
2023-05-11T15:41:08.265Z,2.00
2023-05-11T15:43:35.366Z,2.40
2023-05-11T15:46:03.998Z,2.70
2023-05-11T15:48:31.445Z,3.00
2023-05-11T15:51:02.228Z,3.90
2023-05-11T15:53:29.225Z,2.80
2023-05-11T15:55:56.989Z,2.50
2023-05-11T15:58:23.933Z,1.90
2023-05-11T16:00:51.288Z,1.80
2023-05-11T16:03:20.014Z,1.90
2023-05-11T16:05:47.182Z,2.20
2023-05-11T16:08:14.801Z,2.00
2023-05-11T16:10:41.728Z,2.20
2023-05-11T16:13:09.636Z,2.10
2023-05-11T16:15:36.746Z,2.40
2023-05-11T16:20:46.576Z,2.30
2023-05-11T16:23:13.825Z,2.90
2023-05-11T16:25:40.901Z,2.90
2023-05-11T16:28:07.844Z,2.80
2023-05-11T16:30:34.893Z,2.00
2023-05-11T16:33:01.928Z,2.10
2023-05-11T16:35:29.476Z,2.10
2023-05-11T16:37:59.410Z,2.40
2023-05-11T16:40:27.187Z,2.10
2023-05-11T16:42:54.124Z,2.60
2023-05-11T16:45:21.180Z,1.80
2023-05-11T16:47:48.161Z,1.80
2023-05-11T16:50:16.529Z,2.20
2023-05-11T16:52:43.759Z,2.10
2023-05-11T16:55:11.196Z,2.20
2023-05-11T16:57:38.159Z,2.30
2023-05-11T17:00:06.592Z,2.60
2023-05-11T17:02:33.842Z,2.40
2023-05-11T17:05:01.047Z,2.60
2023-05-11T17:07:28.080Z,2.60
2023-05-11T17:09:57.301Z,2.70
2023-05-11T17:12:24.405Z,3.00
2023-05-11T17:14:51.366Z,2.90
2023-05-11T17:17:18.352Z,2.90
2023-05-11T17:19:45.974Z,2.70
2023-05-11T17:22:13.118Z,2.70
2023-05-11T17:24:40.335Z,2.80
2023-05-11T17:27:07.420Z,2.80
2023-05-11T17:29:34.975Z,3.30
2023-05-11T17:32:02.090Z,2.80
2023-05-11T17:34:30.213Z,2.70
2023-05-11T17:36:57.346Z,3.30
2023-05-11T17:39:24.611Z,3.10
2023-05-11T17:41:51.542Z,3.60
2023-05-11T17:44:18.487Z,3.60
2023-05-11T17:46:45.530Z,3.70
2023-05-11T17:49:12.588Z,3.10
2023-05-11T17:51:39.822Z,2.90
2023-05-11T17:54:06.777Z,3.30
2023-05-11T17:56:33.828Z,3.50
2023-05-11T17:59:00.969Z,3.50
2023-05-11T18:01:28.138Z,3.60
2023-05-11T18:03:55.251Z,3.10
2023-05-11T18:06:22.413Z,3.50
2023-05-11T18:08:49.585Z,3.50
2023-05-11T18:11:16.608Z,3.40
2023-05-11T18:13:44.168Z,2.90
2023-05-11T18:16:11.185Z,3.00
2023-05-11T18:18:38.695Z,2.50
2023-05-11T18:21:06.454Z,2.20
2023-05-11T18:23:33.895Z,2.30
2023-05-11T18:26:00.939Z,2.30
2023-05-11T18:28:27.879Z,2.90
2023-05-11T18:30:54.820Z,2.60
2023-05-11T18:33:21.925Z,2.50
2023-05-11T18:35:50.559Z,3.40
2023-05-11T18:38:17.507Z,3.80
2023-05-11T18:40:45.059Z,3.20
2023-05-11T18:43:12.422Z,2.50
2023-05-11T18:45:41.200Z,3.00
2023-05-11T18:48:08.636Z,3.10
2023-05-11T18:50:36.027Z,3.10
2023-05-11T18:53:03.065Z,2.80
2023-05-11T18:55:35.368Z,3.30
2023-05-11T18:58:08.213Z,3.60
2023-05-11T19:00:37.710Z,3.00
2023-05-11T19:03:05.199Z,3.10
2023-05-11T19:05:32.733Z,3.30
2023-05-11T19:07:59.852Z,3.50
2023-05-11T19:10:26.942Z,4.00
2023-05-11T19:12:53.840Z,3.40
2023-05-11T19:15:21.328Z,3.40
2023-05-11T19:17:48.276Z,3.40
2023-05-11T19:20:15.587Z,3.20
2023-05-11T19:22:42.518Z,3.40
2023-05-11T19:25:10.234Z,4.20
2023-05-11T19:27:37.147Z,4.00
2023-05-11T19:30:04.844Z,3.50
2023-05-11T19:32:31.787Z,3.40
2023-05-11T19:34:58.646Z,3.20
2023-05-11T19:37:25.523Z,3.70
2023-05-11T19:39:52.398Z,3.40
2023-05-11T19:42:28.774Z,3.90
2023-05-11T19:45:07.225Z,3.60
2023-05-11T19:47:34.241Z,2.90
2023-05-11T19:50:01.700Z,4.40
2023-05-11T19:52:28.630Z,3.30
2023-05-11T19:54:56.087Z,3.50
2023-05-11T19:57:23.131Z,3.50
2023-05-11T19:59:50.409Z,3.80
2023-05-11T20:02:17.950Z,4.30
2023-05-11T20:04:46.631Z,3.60
2023-05-11T20:07:13.573Z,3.40
2023-05-11T20:09:40.700Z,3.50
2023-05-11T20:12:07.782Z,4.20
2023-05-11T20:14:36.968Z,4.50
2023-05-11T20:17:05.242Z,4.30
2023-05-11T20:19:32.493Z,4.00
2023-05-11T20:21:59.440Z,3.70
2023-05-11T20:24:27.205Z,4.00
2023-05-11T20:26:54.275Z,4.70
2023-05-11T20:29:21.133Z,7.50
2023-05-11T20:31:48.048Z,4.90
2023-05-11T20:34:15.553Z,5.20
2023-05-11T20:36:42.747Z,5.00
2023-05-11T20:39:09.691Z,5.10
2023-05-11T20:41:36.731Z,5.10
2023-05-11T20:44:04.001Z,5.40
2023-05-11T20:46:30.930Z,4.90
2023-05-11T20:48:57.877Z,4.80
2023-05-11T20:51:24.933Z,5.40
2023-05-11T20:53:52.078Z,4.70
2023-05-11T20:56:19.127Z,5.10
2023-05-11T20:58:47.597Z,7.20
2023-05-11T21:01:14.890Z,6.20
2023-05-11T21:03:41.952Z,6.70
2023-05-11T21:06:08.935Z,6.00
2023-05-11T21:08:36.209Z,5.10
2023-05-11T21:11:03.346Z,5.40
2023-05-11T21:13:30.204Z,5.60
2023-05-11T21:15:57.106Z,6.40
2023-05-11T21:18:29.211Z,6.20
2023-05-11T21:20:56.243Z,6.20
2023-05-11T21:23:23.187Z,5.40
2023-05-11T21:25:54.127Z,5.70
2023-05-11T21:28:21.272Z,6.00
2023-05-11T21:30:48.170Z,6.80
2023-05-11T21:33:15.463Z,6.50
2023-05-11T21:35:42.718Z,6.70
2023-05-11T21:38:09.993Z,5.90
2023-05-11T21:40:36.868Z,6.00
2023-05-11T21:43:03.759Z,5.90
2023-05-11T21:45:30.720Z,5.80
2023-05-11T21:47:58.971Z,5.80
2023-05-11T21:50:26.129Z,5.70
2023-05-11T21:52:53.281Z,6.80
2023-05-11T21:55:20.157Z,6.80
2023-05-11T21:57:47.073Z,6.50
2023-05-11T22:00:18.774Z,6.20
2023-05-11T22:02:46.030Z,6.70
2023-05-11T22:05:12.958Z,6.10
2023-05-11T22:07:39.965Z,6.30
2023-05-11T22:10:07.524Z,5.90
2023-05-11T22:12:34.470Z,5.90
2023-05-11T22:15:01.421Z,6.30
2023-05-11T22:17:28.393Z,7.00
2023-05-11T22:19:55.404Z,5.80
2023-05-11T22:22:22.349Z,6.50
2023-05-11T22:24:49.395Z,6.50
2023-05-11T22:27:16.545Z,5.90
2023-05-11T22:29:43.485Z,6.40
2023-05-11T22:32:10.565Z,6.00
2023-05-11T22:34:38.482Z,6.80
2023-05-11T22:37:05.956Z,5.70
2023-05-11T22:39:33.618Z,6.00
2023-05-11T22:42:00.671Z,6.50
2023-05-11T22:44:28.657Z,6.10
2023-05-11T22:46:59.260Z,6.80
2023-05-11T22:49:27.044Z,5.90
2023-05-11T22:51:58.855Z,5.50
2023-05-11T22:54:26.649Z,5.80
2023-05-11T22:56:53.585Z,6.50
2023-05-11T22:59:20.533Z,5.90
2023-05-11T23:01:47.585Z,6.10
2023-05-11T23:04:15.180Z,6.00
2023-05-11T23:06:42.199Z,5.60
2023-05-11T23:09:09.850Z,5.20
2023-05-11T23:11:37.415Z,5.30
2023-05-11T23:14:04.286Z,6.60
2023-05-11T23:16:31.303Z,6.60
2023-05-11T23:19:01.874Z,6.10
2023-05-11T23:21:28.981Z,6.00
2023-05-11T23:23:55.923Z,6.80
2023-05-11T23:26:22.887Z,6.20
2023-05-11T23:28:49.848Z,6.30
2023-05-11T23:31:17.256Z,5.70
2023-05-11T23:33:44.316Z,5.90
2023-05-11T23:36:11.267Z,5.80
2023-05-11T23:38:38.123Z,5.40
2023-05-11T23:41:05.113Z,5.90
2023-05-11T23:43:33.431Z,5.80
2023-05-11T23:46:01.391Z,7.10
2023-05-11T23:48:28.338Z,7.00
2023-05-11T23:50:55.385Z,6.50
2023-05-11T23:53:22.329Z,6.40
2023-05-11T23:55:49.274Z,6.30
2023-05-11T23:58:16.218Z,6.10
